Time;durP1;ratioP1;P1;durP2;ratioP2;P2;SDS_P1;SDS_P2;PMS_P1;PMS_P2;Temp;Humidity;BMP_temperature;BMP_pressure;BME280_temperature;BME280_humidity;BME280_pressure;Samples;Min_cycle;Max_cycle;Signal;HPM_P1;HPM_P2
2023/02/15 00:00:58;;;;;;;;;;;18.10;48.10;;;;;;10079582;28;825;-74
2023/02/15 00:05:54;;;;;;;;;;;18.20;48.20;;;;;;10079103;28;912;-74
2023/02/15 00:10:49;;;;;;;;;;;18.20;48.20;;;;;;10079275;28;1903;-74
2023/02/15 00:15:44;;;;;;;;;;;18.10;48.10;;;;;;10079467;28;808;-74
2023/02/15 00:20:40;;;;;;;;;;;18.10;48.10;;;;;;10079922;28;825;-74
2023/02/15 00:25:35;;;;;;;;;;;18.10;48.10;;;;;;10079221;28;1061;-74
2023/02/15 00:30:30;;;;;;;;;;;18.10;48.10;;;;;;10079055;28;1973;-74
2023/02/15 00:35:26;;;;;;;;;;;18.10;48.10;;;;;;10078986;28;809;-74
2023/02/15 00:40:21;;;;;;;;;;;18.10;48.00;;;;;;10078661;28;753;-74
2023/02/15 00:45:16;;;;;;;;;;;18.10;48.00;;;;;;10079124;28;1310;-74
2023/02/15 00:50:12;;;;;;;;;;;18.10;48.00;;;;;;10077906;28;1927;-74
2023/02/15 00:55:07;;;;;;;;;;;18.10;48.10;;;;;;10079046;28;810;-74
2023/02/15 01:00:03;;;;;;;;;;;18.10;48.10;;;;;;10078398;28;861;-74
2023/02/15 01:04:58;;;;;;;;;;;18.10;48.20;;;;;;10078304;28;836;-74
2023/02/15 01:09:53;;;;;;;;;;;18.10;48.10;;;;;;10081868;28;1965;-74
2023/02/15 01:14:49;;;;;;;;;;;18.10;48.10;;;;;;10084759;28;861;-74
2023/02/15 01:19:44;;;;;;;;;;;18.10;48.00;;;;;;10085199;28;927;-74
2023/02/15 01:24:39;;;;;;;;;;;18.10;48.70;;;;;;10084505;28;931;-74
2023/02/15 01:29:35;;;;;;;;;;;18.10;48.10;;;;;;10084258;28;1964;-74
2023/02/15 01:34:30;;;;;;;;;;;18.10;48.10;;;;;;10084096;28;911;-74
2023/02/15 01:39:25;;;;;;;;;;;18.00;48.10;;;;;;10083559;28;833;-74
2023/02/15 01:44:21;;;;;;;;;;;18.00;48.00;;;;;;10083927;28;1387;-74
2023/02/15 01:49:16;;;;;;;;;;;18.00;48.00;;;;;;10083676;29;1907;-74
2023/02/15 01:54:11;;;;;;;;;;;18.00;48.00;;;;;;10084158;28;859;-74
2023/02/15 01:59:07;;;;;;;;;;;18.00;48.00;;;;;;10082854;28;876;-74
2023/02/15 02:04:03;;;;;;;;;;;18.00;48.00;;;;;;10083846;28;920;-74
2023/02/15 02:08:58;;;;;;;;;;;18.00;48.00;;;;;;10083802;28;1911;-75
2023/02/15 02:13:53;;;;;;;;;;;18.00;48.00;;;;;;10083588;28;848;-74
2023/02/15 02:18:49;;;;;;;;;;;18.00;48.00;;;;;;10083552;28;834;-75
2023/02/15 02:23:44;;;;;;;;;;;18.00;48.00;;;;;;10083004;28;1030;-75
2023/02/15 02:28:39;;;;;;;;;;;18.00;48.10;;;;;;10083081;28;1910;-75
2023/02/15 02:33:35;;;;;;;;;;;18.00;48.10;;;;;;10082386;28;809;-75
2023/02/15 02:38:30;;;;;;;;;;;18.00;48.10;;;;;;10082793;28;884;-74
2023/02/15 02:43:25;;;;;;;;;;;18.00;48.20;;;;;;10082687;28;1278;-75
2023/02/15 02:48:21;;;;;;;;;;;18.00;48.10;;;;;;10081433;28;1903;-75
2023/02/15 02:53:16;;;;;;;;;;;17.90;48.10;;;;;;10082369;28;906;-74
2023/02/15 02:58:12;;;;;;;;;;;18.00;48.20;;;;;;10082261;28;934;-74
2023/02/15 03:03:07;;;;;;;;;;;18.00;48.10;;;;;;10082028;28;810;-74
2023/02/15 03:08:05;;;;;;;;;;;18.00;48.20;;;;;;10081283;28;1936;-74
2023/02/15 03:13:01;;;;;;;;;;;18.00;48.20;;;;;;10080635;28;919;-74
2023/02/15 03:17:56;;;;;;;;;;;18.00;48.70;;;;;;10080532;28;877;-74
2023/02/15 03:22:52;;;;;;;;;;;18.00;48.10;;;;;;10080909;28;873;-75
2023/02/15 03:27:47;;;;;;;;;;;18.00;48.00;;;;;;10081283;28;1902;-74
2023/02/15 03:32:42;;;;;;;;;;;17.90;48.00;;;;;;10080242;28;866;-75
2023/02/15 03:37:38;;;;;;;;;;;17.90;48.00;;;;;;10079836;28;893;-74
2023/02/15 03:42:33;;;;;;;;;;;17.90;48.10;;;;;;10080361;28;1296;-74
2023/02/15 03:47:29;;;;;;;;;;;17.90;48.10;;;;;;10081501;28;1989;-74
2023/02/15 03:52:24;;;;;;;;;;;17.90;48.10;;;;;;10080712;28;833;-74
2023/02/15 04:02:33;;;;;;;;;;;17.90;48.10;;;;;;10079275;29;612;-74
2023/02/15 04:07:31;;;;;;;;;;;17.90;48.10;;;;;;10079613;28;1907;-74
2023/02/15 04:12:26;;;;;;;;;;;17.90;48.10;;;;;;10079023;28;871;-74
2023/02/15 04:17:22;;;;;;;;;;;17.90;48.10;;;;;;10078862;28;896;-74
2023/02/15 04:27:31;;;;;;;;;;;17.90;48.10;;;;;;10078600;29;1977;-74
2023/02/15 04:32:27;;;;;;;;;;;17.90;48.10;;;;;;10079685;28;849;-74
2023/02/15 04:37:22;;;;;;;;;;;17.90;48.10;;;;;;10078863;28;889;-74
2023/02/15 04:42:18;;;;;;;;;;;17.90;48.10;;;;;;10078873;28;1145;-74
2023/02/15 04:47:13;;;;;;;;;;;17.80;48.60;;;;;;10085867;28;1915;-74
2023/02/15 04:52:08;;;;;;;;;;;17.80;48.10;;;;;;10085440;28;798;-75
2023/02/15 04:57:04;;;;;;;;;;;17.80;48.10;;;;;;10085343;28;782;-74
2023/02/15 05:01:59;;;;;;;;;;;17.80;48.10;;;;;;10085143;28;884;-75
2023/02/15 05:06:54;;;;;;;;;;;17.80;48.00;;;;;;10085112;28;897;-74
2023/02/15 05:11:50;;;;;;;;;;;17.80;48.20;;;;;;10084874;28;1945;-74
2023/02/15 05:16:45;;;;;;;;;;;17.80;48.10;;;;;;10085350;28;867;-74
2023/02/15 05:21:40;;;;;;;;;;;17.80;48.10;;;;;;10084625;28;912;-74
2023/02/15 05:31:50;;;;;;;;;;;17.80;48.10;;;;;;10083750;29;1910;-74
2023/02/15 05:36:45;;;;;;;;;;;17.80;48.00;;;;;;10084158;28;907;-77
2023/02/15 05:41:41;;;;;;;;;;;17.70;48.00;;;;;;10084416;28;1264;-77
2023/02/15 05:46:36;;;;;;;;;;;17.70;48.00;;;;;;10084135;28;912;-77
2023/02/15 05:51:31;;;;;;;;;;;17.80;48.00;;;;;;10084270;28;1914;-76
2023/02/15 05:56:27;;;;;;;;;;;17.70;48.00;;;;;;10083940;28;1035;-76
2023/02/15 06:01:22;;;;;;;;;;;17.70;47.90;;;;;;10083343;28;788;-76
2023/02/15 06:06:18;;;;;;;;;;;17.70;47.90;;;;;;10083208;28;920;-76
2023/02/15 06:11:13;;;;;;;;;;;17.70;48.00;;;;;;10082757;28;1907;-76
2023/02/15 06:16:08;;;;;;;;;;;17.70;47.90;;;;;;10082968;28;879;-76
2023/02/15 06:21:04;;;;;;;;;;;17.70;48.00;;;;;;10083102;28;856;-78
2023/02/15 06:25:59;;;;;;;;;;;17.70;48.00;;;;;;10082654;28;840;-75
2023/02/15 06:30:55;;;;;;;;;;;17.70;48.00;;;;;;10082540;28;1975;-76
2023/02/15 06:35:50;;;;;;;;;;;17.70;48.10;;;;;;10082330;28;855;-75
2023/02/15 06:40:45;;;;;;;;;;;17.70;48.00;;;;;;10081534;28;1337;-76
2023/02/15 06:45:41;;;;;;;;;;;17.70;48.00;;;;;;10082105;28;818;-75
2023/02/15 06:50:36;;;;;;;;;;;17.60;47.90;;;;;;10081846;28;1922;-75
2023/02/15 06:55:31;;;;;;;;;;;17.70;48.00;;;;;;10082401;28;780;-75
2023/02/15 07:00:27;;;;;;;;;;;17.70;47.90;;;;;;10080455;29;837;-75
2023/02/15 07:05:22;;;;;;;;;;;17.70;48.00;;;;;;10080871;28;884;-78
2023/02/15 07:10:17;;;;;;;;;;;17.60;47.90;;;;;;10081092;28;1970;-73
2023/02/15 07:15:13;;;;;;;;;;;17.60;47.90;;;;;;10081156;28;886;-74
2023/02/15 07:20:08;;;;;;;;;;;17.60;47.90;;;;;;10081045;28;786;-75
2023/02/15 07:25:04;;;;;;;;;;;17.60;48.00;;;;;;10080900;28;865;-75
2023/02/15 07:29:59;;;;;;;;;;;17.60;48.00;;;;;;10080110;28;1970;-75
2023/02/15 07:34:54;;;;;;;;;;;17.60;48.00;;;;;;10081214;28;795;-75
2023/02/15 07:39:50;;;;;;;;;;;17.60;48.00;;;;;;10080960;28;1043;-79
2023/02/15 07:44:45;;;;;;;;;;;17.60;48.00;;;;;;10080175;28;1200;-77
2023/02/15 07:49:40;;;;;;;;;;;17.60;47.90;;;;;;10079566;28;1915;-76
2023/02/15 07:54:36;;;;;;;;;;;17.60;47.70;;;;;;10081305;28;833;-76
2023/02/15 07:59:31;;;;;;;;;;;17.70;47.90;;;;;;10079992;28;767;-76
2023/02/15 08:04:26;;;;;;;;;;;17.60;47.80;;;;;;10079800;28;774;-76
2023/02/15 08:09:22;;;;;;;;;;;17.60;47.90;;;;;;10079263;28;1898;-76
2023/02/15 08:14:17;;;;;;;;;;;17.50;47.90;;;;;;10080128;28;777;-76
2023/02/15 08:19:13;;;;;;;;;;;17.60;48.00;;;;;;10081905;28;767;-76
2023/02/15 08:24:08;;;;;;;;;;;17.60;48.00;;;;;;10086964;28;869;-72
2023/02/15 08:29:03;;;;;;;;;;;17.50;48.50;;;;;;10086803;28;1953;-75
2023/02/15 08:33:59;;;;;;;;;;;17.80;48.10;;;;;;10085569;28;1019;-72
2023/02/15 08:38:54;;;;;;;;;;;18.00;48.20;;;;;;10085941;28;917;-76
2023/02/15 08:43:50;;;;;;;;;;;18.00;48.30;;;;;;10085328;28;1161;-76
2023/02/15 08:48:46;;;;;;;;;;;18.00;48.20;;;;;;10085594;28;1970;-73
2023/02/15 08:53:41;;;;;;;;;;;18.10;48.10;;;;;;10086147;28;905;-75
2023/02/15 08:58:37;;;;;;;;;;;18.00;48.20;;;;;;10085961;28;853;-75
2023/02/15 09:03:32;;;;;;;;;;;18.00;48.30;;;;;;10085185;28;780;-73
2023/02/15 09:08:27;;;;;;;;;;;18.00;48.40;;;;;;10085004;28;1903;-74
2023/02/15 09:13:23;;;;;;;;;;;18.10;48.40;;;;;;10084340;28;1048;-74
2023/02/15 09:18:18;;;;;;;;;;;18.10;49.30;;;;;;10084767;28;887;-73
2023/02/15 09:23:15;;;;;;;;;;;18.10;50.00;;;;;;10084629;28;770;-75
2023/02/15 09:28:10;;;;;;;;;;;18.10;50.30;;;;;;10084904;28;1958;-74
2023/02/15 09:33:06;;;;;;;;;;;18.10;50.50;;;;;;10083672;28;906;-77
2023/02/15 09:38:01;;;;;;;;;;;18.20;50.70;;;;;;10084187;28;853;-74
2023/02/15 09:42:57;;;;;;;;;;;18.20;50.40;;;;;;10084212;28;1149;-74
2023/02/15 09:47:52;;;;;;;;;;;18.30;50.30;;;;;;10083732;28;1915;-75
2023/02/15 09:52:48;;;;;;;;;;;18.20;50.40;;;;;;10084332;28;809;-76
2023/02/15 09:57:43;;;;;;;;;;;18.20;50.70;;;;;;10084169;28;867;-76
2023/02/15 10:02:38;;;;;;;;;;;18.20;50.60;;;;;;10083996;28;934;-75
2023/02/15 10:07:34;;;;;;;;;;;18.20;50.80;;;;;;10083484;28;1911;-75
2023/02/15 10:12:29;;;;;;;;;;;18.20;50.70;;;;;;10083136;28;884;-76
2023/02/15 10:17:25;;;;;;;;;;;18.20;50.70;;;;;;10083003;28;893;-74
2023/02/15 10:22:22;;;;;;;;;;;18.20;50.70;;;;;;10082827;28;798;-74
2023/02/15 10:27:17;;;;;;;;;;;18.20;50.60;;;;;;10082723;28;872;-74
2023/02/15 10:32:12;;;;;;;;;;;18.20;50.50;;;;;;10082405;28;1902;-75
2023/02/15 10:37:08;;;;;;;;;;;18.10;50.40;;;;;;10082448;28;833;-74
2023/02/15 10:42:03;;;;;;;;;;;18.10;50.40;;;;;;10081994;28;1122;-74
2023/02/15 10:46:58;;;;;;;;;;;18.20;50.30;;;;;;10082126;28;944;-74
2023/02/15 10:51:54;;;;;;;;;;;18.20;50.10;;;;;;10081863;28;1962;-74
2023/02/15 10:56:49;;;;;;;;;;;18.20;50.10;;;;;;10082376;28;1100;-74
2023/02/15 11:01:44;;;;;;;;;;;18.20;50.10;;;;;;10081628;28;824;-75
2023/02/15 11:06:40;;;;;;;;;;;18.10;50.10;;;;;;10081321;28;825;-75
2023/02/15 11:11:35;;;;;;;;;;;18.10;50.30;;;;;;10081478;28;1966;-73
2023/02/15 11:16:30;;;;;;;;;;;18.10;50.80;;;;;;10080875;28;864;-74
2023/02/15 11:21:26;;;;;;;;;;;18.20;50.50;;;;;;10080707;28;987;-75
2023/02/15 11:26:21;;;;;;;;;;;18.10;50.70;;;;;;10079975;28;924;-74
2023/02/15 11:31:17;;;;;;;;;;;18.10;50.70;;;;;;10080352;28;1956;-74
2023/02/15 11:36:12;;;;;;;;;;;18.10;50.70;;;;;;10079694;28;825;-73
2023/02/15 11:41:07;;;;;;;;;;;18.10;50.60;;;;;;10080438;28;1324;-74
2023/02/15 11:46:03;;;;;;;;;;;18.10;50.40;;;;;;10080568;28;858;-75
2023/02/15 11:50:58;;;;;;;;;;;18.00;50.80;;;;;;10079859;28;1977;-75
2023/02/15 11:55:53;;;;;;;;;;;17.80;50.90;;;;;;10080163;28;865;-75
2023/02/15 12:00:49;;;;;;;;;;;17.70;50.80;;;;;;10079958;28;853;-74
2023/02/15 12:05:44;;;;;;;;;;;17.60;50.80;;;;;;10079737;28;843;-74
2023/02/15 12:10:39;;;;;;;;;;;17.60;50.70;;;;;;10080067;28;1907;-75
2023/02/15 12:15:35;;;;;;;;;;;17.60;50.70;;;;;;10079589;28;806;-74
2023/02/15 12:20:30;;;;;;;;;;;17.60;50.50;;;;;;10079443;28;779;-74
2023/02/15 12:25:26;;;;;;;;;;;17.70;50.40;;;;;;10078781;28;904;-75
2023/02/15 12:30:21;;;;;;;;;;;17.70;50.30;;;;;;10079154;28;1965;-74
2023/02/15 12:35:16;;;;;;;;;;;17.70;50.10;;;;;;10079729;28;802;-74
2023/02/15 12:40:12;;;;;;;;;;;17.70;49.90;;;;;;10079728;28;911;-74
2023/02/15 12:45:07;;;;;;;;;;;17.70;49.80;;;;;;10080035;28;1285;-74
2023/02/15 12:50:02;;;;;;;;;;;17.70;49.80;;;;;;10078809;28;1979;-74
2023/02/15 12:54:58;;;;;;;;;;;17.80;49.80;;;;;;10078618;28;967;-74
2023/02/15 12:59:53;;;;;;;;;;;17.80;49.70;;;;;;10078330;28;942;-74
2023/02/15 13:04:48;;;;;;;;;;;17.80;49.60;;;;;;10080870;28;861;-75
2023/02/15 13:09:44;;;;;;;;;;;17.90;49.50;;;;;;10084397;28;1961;-74
2023/02/15 13:14:39;;;;;;;;;;;17.90;49.40;;;;;;10083003;28;1813;-75
2023/02/15 13:19:34;;;;;;;;;;;17.90;49.30;;;;;;10086038;28;896;-75
2023/02/15 13:24:30;;;;;;;;;;;17.90;49.40;;;;;;10085194;28;786;-75
2023/02/15 13:29:25;;;;;;;;;;;18.00;49.40;;;;;;10084945;28;1907;-74
2023/02/15 13:34:21;;;;;;;;;;;18.20;50.10;;;;;;10084739;28;833;-78
2023/02/15 13:39:16;;;;;;;;;;;18.40;50.30;;;;;;10084125;28;884;-79
2023/02/15 13:44:12;;;;;;;;;;;18.60;50.50;;;;;;10083366;28;1364;-80
2023/02/15 13:49:07;;;;;;;;;;;18.60;50.50;;;;;;10083684;28;1907;-78
2023/02/15 13:54:02;;;;;;;;;;;18.60;50.40;;;;;;10083634;28;783;-80
2023/02/15 13:58:58;;;;;;;;;;;18.70;50.40;;;;;;10083872;28;867;-80
2023/02/15 14:03:53;;;;;;;;;;;18.80;50.40;;;;;;10084236;28;901;-80
2023/02/15 14:08:48;;;;;;;;;;;18.80;50.40;;;;;;10083037;28;1964;-80
2023/02/15 14:13:44;;;;;;;;;;;18.80;50.30;;;;;;10082746;28;867;-77
2023/02/15 14:18:39;;;;;;;;;;;18.90;50.20;;;;;;10082284;28;770;-79
2023/02/15 14:23:36;;;;;;;;;;;18.90;50.00;;;;;;10082537;28;875;-80
2023/02/15 14:28:33;;;;;;;;;;;19.00;50.00;;;;;;10082313;28;1967;-80
2023/02/15 14:33:29;;;;;;;;;;;19.10;50.00;;;;;;10082885;28;859;-80
2023/02/15 14:38:26;;;;;;;;;;;19.10;50.00;;;;;;10081994;28;885;-80
2023/02/15 14:43:21;;;;;;;;;;;19.10;49.90;;;;;;10082515;28;1118;-80
2023/02/15 14:48:16;;;;;;;;;;;19.10;49.90;;;;;;10081723;28;1974;-80
2023/02/15 14:53:12;;;;;;;;;;;19.20;49.80;;;;;;10080982;28;830;-80
2023/02/15 14:58:07;;;;;;;;;;;19.20;49.70;;;;;;10081497;28;768;-80
2023/02/15 15:03:02;;;;;;;;;;;19.30;49.60;;;;;;10080777;28;1327;-79
2023/02/15 15:07:58;;;;;;;;;;;19.30;49.60;;;;;;10081851;28;1902;-80
2023/02/15 15:12:53;;;;;;;;;;;19.20;49.60;;;;;;10082605;28;1022;-80
2023/02/15 15:17:48;;;;;;;;;;;19.10;49.70;;;;;;10081481;28;862;-79
2023/02/15 15:22:44;;;;;;;;;;;19.10;49.70;;;;;;10081029;28;875;-80
2023/02/15 15:27:39;;;;;;;;;;;19.10;49.80;;;;;;10081374;28;1923;-79
2023/02/15 15:32:35;;;;;;;;;;;19.00;49.80;;;;;;10081250;28;850;-80
2023/02/15 15:37:30;;;;;;;;;;;19.00;50.00;;;;;;10080541;28;877;-83
2023/02/15 15:42:25;;;;;;;;;;;19.00;51.10;;;;;;10080820;28;1348;-83
2023/02/15 15:47:21;;;;;;;;;;;18.90;51.40;;;;;;10080304;28;778;-79
2023/02/15 15:52:16;;;;;;;;;;;18.90;51.20;;;;;;10080124;28;1911;-68
2023/02/15 15:57:11;;;;;;;;;;;18.80;50.90;;;;;;10080317;28;866;-81
2023/02/15 16:02:07;;;;;;;;;;;18.80;52.80;;;;;;10079699;28;814;-81
2023/02/15 16:07:02;;;;;;;;;;;18.90;54.80;;;;;;10079602;28;917;-80
2023/02/15 16:12:02;;;;;;;;;;;18.80;54.90;;;;;;10079031;28;1903;-80
2023/02/15 16:16:57;;;;;;;;;;;18.70;54.70;;;;;;10079560;28;814;-80
2023/02/15 16:21:53;;;;;;;;;;;18.60;54.10;;;;;;10080013;28;782;-77
2023/02/15 16:26:48;;;;;;;;;;;18.60;53.80;;;;;;10078720;28;1793;-78
2023/02/15 16:31:43;;;;;;;;;;;18.60;53.20;;;;;;10079151;28;1906;-77
2023/02/15 16:36:39;;;;;;;;;;;18.70;52.90;;;;;;10079004;28;763;-78
2023/02/15 16:41:34;;;;;;;;;;;18.70;52.70;;;;;;10083357;28;1224;-77
2023/02/15 16:46:30;;;;;;;;;;;18.70;52.60;;;;;;10086286;28;882;-77
2023/02/15 16:51:25;;;;;;;;;;;18.70;52.50;;;;;;10085700;28;1914;-77
2023/02/15 16:56:20;;;;;;;;;;;18.80;52.50;;;;;;10084934;28;916;-77
2023/02/15 17:01:16;;;;;;;;;;;18.80;52.50;;;;;;10085863;28;822;-76
2023/02/15 17:06:11;;;;;;;;;;;18.70;52.60;;;;;;10084685;28;904;-74
2023/02/15 17:11:06;;;;;;;;;;;18.70;52.70;;;;;;10085572;28;1907;-77
2023/02/15 17:16:02;;;;;;;;;;;18.70;52.70;;;;;;10085041;28;900;-77
2023/02/15 17:20:57;;;;;;;;;;;18.70;52.60;;;;;;10085314;28;890;-78
2023/02/15 17:25:52;;;;;;;;;;;18.70;52.50;;;;;;10084585;28;807;-78
2023/02/15 17:30:48;;;;;;;;;;;18.70;52.30;;;;;;10084439;28;1906;-78
2023/02/15 17:35:43;;;;;;;;;;;18.70;52.20;;;;;;10084824;29;807;-78
2023/02/15 17:40:39;;;;;;;;;;;18.70;52.20;;;;;;10084472;28;1182;-78
2023/02/15 17:45:34;;;;;;;;;;;18.60;52.10;;;;;;10084626;28;759;-78
2023/02/15 17:50:30;;;;;;;;;;;18.70;52.00;;;;;;10082779;28;1915;-78
2023/02/15 17:55:34;;;;;;;;;;;18.70;51.70;;;;;;10083646;28;794;-78
2023/02/15 18:16:12;;;;;;;;;;;18.80;51.40;;;;;;10082754;29;688;-78
2023/02/15 18:21:09;;;;;;;;;;;18.80;51.20;;;;;;10083507;28;884;-78
2023/02/15 18:26:05;;;;;;;;;;;18.80;51.20;;;;;;10083348;28;909;-78
2023/02/15 18:31:00;;;;;;;;;;;18.90;51.10;;;;;;10083191;28;1968;-78
2023/02/15 18:35:56;;;;;;;;;;;18.80;51.20;;;;;;10081877;28;838;-79
2023/02/15 18:40:51;;;;;;;;;;;18.80;51.00;;;;;;10082174;28;1275;-78
2023/02/15 18:45:46;;;;;;;;;;;18.90;51.00;;;;;;10082238;28;825;-78
2023/02/15 18:50:42;;;;;;;;;;;18.90;51.00;;;;;;10082515;28;1914;-78
2023/02/15 18:55:37;;;;;;;;;;;18.90;50.80;;;;;;10083041;28;909;-78
2023/02/15 19:00:32;;;;;;;;;;;18.90;50.80;;;;;;10081739;28;881;-78
2023/02/15 19:05:28;;;;;;;;;;;18.90;50.70;;;;;;10081230;28;813;-78
2023/02/15 19:10:23;;;;;;;;;;;18.90;50.70;;;;;;10081360;28;1961;-78
2023/02/15 19:15:18;;;;;;;;;;;18.90;50.60;;;;;;10081278;28;1178;-78
2023/02/15 19:20:14;;;;;;;;;;;18.90;50.50;;;;;;10081118;28;890;-81
2023/02/15 19:25:09;;;;;;;;;;;18.90;50.30;;;;;;10081639;28;857;-78
2023/02/15 19:30:05;;;;;;;;;;;18.80;50.50;;;;;;10081487;28;1879;-78
2023/02/15 19:35:00;;;;;;;;;;;18.90;50.50;;;;;;10080666;28;814;-75
2023/02/15 19:39:55;;;;;;;;;;;18.90;50.50;;;;;;10080536;28;991;-78
2023/02/15 19:44:51;;;;;;;;;;;18.90;50.40;;;;;;10081305;28;1317;-72
2023/02/15 19:49:46;;;;;;;;;;;19.00;50.40;;;;;;10080776;28;1981;-80
2023/02/15 19:54:41;;;;;;;;;;;18.90;50.30;;;;;;10080160;28;803;-80
2023/02/15 19:59:37;;;;;;;;;;;18.90;50.40;;;;;;10080031;28;814;-76
2023/02/15 20:04:32;;;;;;;;;;;18.90;50.30;;;;;;10079942;28;778;-75
2023/02/15 20:09:28;;;;;;;;;;;18.90;50.30;;;;;;10079747;28;1974;-75
2023/02/15 20:14:23;;;;;;;;;;;18.90;50.50;;;;;;10078853;28;825;-75
2023/02/15 20:19:19;;;;;;;;;;;18.90;50.30;;;;;;10079640;28;852;-75
2023/02/15 20:24:14;;;;;;;;;;;18.90;50.30;;;;;;10079429;28;851;-75
2023/02/15 20:29:09;;;;;;;;;;;18.80;50.30;;;;;;10079791;28;1967;-75
2023/02/15 20:34:05;;;;;;;;;;;18.80;50.40;;;;;;10079203;28;802;-75
2023/02/15 20:39:01;;;;;;;;;;;18.80;50.60;;;;;;10079071;28;846;-75
2023/02/15 20:43:56;;;;;;;;;;;18.80;50.60;;;;;;10078402;28;1261;-75
2023/02/15 20:48:51;;;;;;;;;;;18.80;50.50;;;;;;10079220;28;1918;-75
2023/02/15 20:53:47;;;;;;;;;;;18.70;50.50;;;;;;10078088;28;1010;-75
2023/02/15 20:58:42;;;;;;;;;;;18.80;51.10;;;;;;10078567;28;775;-75
2023/02/15 21:03:37;;;;;;;;;;;18.70;50.50;;;;;;10077907;28;999;-75
2023/02/15 21:08:33;;;;;;;;;;;18.70;50.40;;;;;;10078306;28;1907;-75
2023/02/15 21:13:28;;;;;;;;;;;18.70;50.50;;;;;;10078831;28;920;-75
2023/02/15 21:18:24;;;;;;;;;;;18.70;50.50;;;;;;10077565;28;920;-75
2023/02/15 21:23:19;;;;;;;;;;;18.70;50.50;;;;;;10078032;28;951;-75
2023/02/15 21:28:14;;;;;;;;;;;18.70;50.30;;;;;;10082906;28;1956;-75
2023/02/15 21:33:10;;;;;;;;;;;18.70;50.20;;;;;;10085058;28;939;-74
2023/02/15 21:38:05;;;;;;;;;;;18.70;50.80;;;;;;10084894;28;880;-75
2023/02/15 21:48:14;;;;;;;;;;;18.70;50.20;;;;;;10083330;29;1972;-75
2023/02/15 21:53:10;;;;;;;;;;;18.70;50.20;;;;;;10083765;28;973;-75
2023/02/15 21:58:05;;;;;;;;;;;18.60;50.20;;;;;;10083685;28;900;-75
2023/02/15 22:03:01;;;;;;;;;;;18.60;50.20;;;;;;10083506;28;711;-75
2023/02/15 22:07:56;;;;;;;;;;;18.70;50.20;;;;;;10083879;28;1902;-75
2023/02/15 22:12:52;;;;;;;;;;;18.60;50.00;;;;;;10083239;28;806;-74
2023/02/15 22:17:47;;;;;;;;;;;18.60;50.10;;;;;;10083662;28;860;-75
2023/02/15 22:22:42;;;;;;;;;;;18.50;50.00;;;;;;10083562;28;887;-75
2023/02/15 22:27:38;;;;;;;;;;;18.50;50.00;;;;;;10082791;28;847;-75
2023/02/15 22:32:33;;;;;;;;;;;18.60;50.00;;;;;;10083109;28;1961;-75
2023/02/15 22:37:29;;;;;;;;;;;18.50;50.00;;;;;;10082383;28;876;-75
2023/02/15 22:42:24;;;;;;;;;;;18.60;50.00;;;;;;10083044;28;1279;-75
2023/02/15 22:47:19;;;;;;;;;;;18.50;49.90;;;;;;10082723;28;884;-75
2023/02/15 22:52:15;;;;;;;;;;;18.50;50.40;;;;;;10082427;28;1907;-74
2023/02/15 22:57:10;;;;;;;;;;;18.50;49.70;;;;;;10081291;28;907;-75
2023/02/15 23:02:06;;;;;;;;;;;18.50;49.70;;;;;;10081721;28;862;-75
2023/02/15 23:07:01;;;;;;;;;;;18.50;49.90;;;;;;10082103;28;834;-75
2023/02/15 23:11:58;;;;;;;;;;;18.40;50.00;;;;;;10081292;28;1918;-75
2023/02/15 23:16:53;;;;;;;;;;;18.40;49.90;;;;;;10081807;28;821;-75
2023/02/15 23:21:49;;;;;;;;;;;18.40;50.00;;;;;;10081681;28;814;-75
2023/02/15 23:26:44;;;;;;;;;;;18.40;50.00;;;;;;10080475;28;850;-75
2023/02/15 23:31:39;;;;;;;;;;;18.40;49.90;;;;;;10081572;28;1969;-75
2023/02/15 23:36:35;;;;;;;;;;;18.40;50.00;;;;;;10081535;28;900;-75
2023/02/15 23:41:30;;;;;;;;;;;18.40;49.90;;;;;;10080240;29;1256;-75
2023/02/15 23:46:25;;;;;;;;;;;18.40;49.80;;;;;;10081073;28;885;-75
2023/02/15 23:51:21;;;;;;;;;;;18.40;50.10;;;;;;10079165;28;1915;-75
2023/02/15 23:56:17;;;;;;;;;;;18.40;49.80;;;;;;10080194;28;829;-75
